Time;durP1;ratioP1;P1;durP2;ratioP2;P2;SDS_P1;SDS_P2;PMS_P1;PMS_P2;Temp;Humidity;BMP_temperature;BMP_pressure;BME280_temperature;BME280_humidity;BME280_pressure;Samples;Min_cycle;Max_cycle;Signal;HPM_P1;HPM_P2
2023/06/22 00:01:46;;;;;;;14.93;10.43;;;;;;;-146.58;100.00;69501.63;5010653;28;20022;-67
2023/06/22 00:04:11;;;;;;;18.42;12.35;;;;;;;-146.58;100.00;69501.63;5009732;28;20394;-67
2023/06/22 00:06:37;;;;;;;13.88;11.68;;;;;;;-146.58;100.00;69501.63;5010957;28;20041;-67
2023/06/22 00:09:03;;;;;;;15.10;12.75;;;;;;;-146.58;100.00;69501.63;5008432;28;20241;-67
2023/06/22 00:11:28;;;;;;;13.38;12.07;;;;;;;-146.58;100.00;69501.63;5011118;28;20072;-68
2023/06/22 00:13:53;;;;;;;12.40;10.77;;;;;;;-146.58;100.00;69501.63;5008946;28;20041;-67
2023/06/22 00:16:19;;;;;;;15.05;13.43;;;;;;;-146.58;100.00;69501.63;5011289;28;20366;-67
2023/06/22 00:18:47;;;;;;;13.82;12.52;;;;;;;-146.58;100.00;69501.63;5009590;28;20063;-67
2023/06/22 00:21:12;;;;;;;13.60;11.10;;;;;;;-146.58;100.00;69501.63;5010698;28;20101;-67
2023/06/22 00:23:38;;;;;;;13.07;11.77;;;;;;;-146.58;100.00;69501.63;5009263;28;20121;-67
2023/06/22 00:26:03;;;;;;;14.05;11.85;;;;;;;-146.58;100.00;69501.63;5010865;28;20061;-67
2023/06/22 00:28:28;;;;;;;14.07;12.70;;;;;;;-146.58;100.00;69501.63;5009359;28;20037;-67
2023/06/22 00:30:54;;;;;;;14.38;12.98;;;;;;;-146.58;100.00;69501.63;5010474;28;20018;-67
2023/06/22 00:33:19;;;;;;;13.80;12.32;;;;;;;-146.58;100.00;69501.63;5010866;28;20071;-67
2023/06/22 00:35:45;;;;;;;12.70;11.43;;;;;;;-146.58;100.00;69501.63;5008919;28;20038;-67
2023/06/22 00:38:10;;;;;;;16.77;14.20;;;;;;;-146.58;100.00;69501.63;5011117;28;20611;-67
2023/06/22 00:40:36;;;;;;;14.38;12.48;;;;;;;-146.58;100.00;69501.63;5009549;28;20038;-67
2023/06/22 00:43:01;;;;;;;16.08;12.52;;;;;;;-146.58;100.00;69501.63;5010033;28;20025;-70
2023/06/22 00:45:27;;;;;;;13.73;12.30;;;;;;;-146.58;100.00;69501.63;5009490;28;20053;-70
2023/06/22 00:47:53;;;;;;;14.32;12.90;;;;;;;-146.58;100.00;69501.63;5010638;28;20412;-70
2023/06/22 00:50:21;;;;;;;15.95;14.32;;;;;;;-146.58;100.00;69501.63;5008885;28;20061;-74
2023/06/22 00:52:56;;;;;;;16.65;13.52;;;;;;;-146.58;100.00;69501.63;5014043;28;20029;-70
2023/06/22 00:55:23;;;;;;;14.48;12.98;;;;;;;-146.58;100.00;69501.63;5013577;28;20152;-70
2023/06/22 00:57:48;;;;;;;15.75;12.73;;;;;;;-146.58;100.00;69501.63;5014004;28;20109;-70
2023/06/22 01:00:19;;;;;;;17.88;15.77;;;;;;;-146.58;100.00;69501.63;5013252;28;20750;-67
2023/06/22 01:02:45;;;;;;;14.15;12.80;;;;;;;-146.58;100.00;69501.63;5013814;28;20060;-68
2023/06/22 01:05:14;;;;;;;16.15;14.35;;;;;;;-146.58;100.00;69501.63;5012864;28;20042;-67
2023/06/22 01:07:43;;;;;;;16.00;14.38;;;;;;;-146.58;100.00;69501.63;5014525;28;20044;-66
2023/06/22 01:10:18;;;;;;;15.00;13.38;;;;;;;-146.58;100.00;69501.63;5013014;28;20042;-65
2023/06/22 01:12:53;;;;;;;21.48;16.17;;;;;;;-146.58;100.00;69501.63;5013707;28;20034;-65
2023/06/22 01:15:43;;;;;;;17.50;15.63;;;;;;;-146.58;100.00;69501.63;5013065;28;20033;-65
2023/06/22 01:18:09;;;;;;;15.05;13.23;;;;;;;-146.58;100.00;69501.63;5013946;28;20040;-65
2023/06/22 01:20:36;;;;;;;15.77;14.15;;;;;;;-146.58;100.00;69501.63;5012533;28;20084;-65
2023/06/22 01:23:25;;;;;;;16.17;13.40;;;;;;;-146.58;100.00;69501.63;5013513;28;20084;-65
2023/06/22 01:26:04;;;;;;;15.50;14.10;;;;;;;-146.58;100.00;69501.63;5012321;28;20054;-65
2023/06/22 01:28:52;;;;;;;15.75;14.25;;;;;;;-146.58;100.00;69501.63;5012131;28;20045;-65
2023/06/22 01:31:20;;;;;;;18.08;14.90;;;;;;;-146.58;100.00;69501.63;5013937;28;20030;-65
2023/06/22 01:33:51;;;;;;;14.82;13.27;;;;;;;-146.58;100.00;69501.63;5012046;28;20037;-65
2023/06/22 01:36:17;;;;;;;19.67;15.00;;;;;;;-146.58;100.00;69501.63;5012408;28;20036;-64
2023/06/22 01:38:44;;;;;;;19.65;17.73;;;;;;;-146.58;100.00;69501.63;5012500;28;20077;-64
2023/06/22 01:41:10;;;;;;;19.70;17.10;;;;;;;-146.58;100.00;69501.63;5013850;28;20400;-65
2023/06/22 01:43:36;;;;;;;16.92;14.45;;;;;;;-146.58;100.00;69501.63;5011747;28;20038;-64
2023/06/22 01:46:03;;;;;;;18.42;16.58;;;;;;;-146.58;100.00;69501.63;5013473;28;20403;-65
2023/06/22 01:48:28;;;;;;;17.20;15.50;;;;;;;-146.58;100.00;69501.63;5012199;28;20555;-64
2023/06/22 01:50:54;;;;;;;16.45;14.80;;;;;;;-146.58;100.00;69501.63;5013074;28;20053;-65
2023/06/22 01:53:23;;;;;;;14.32;12.75;;;;;;;-146.58;100.00;69501.63;5010698;28;20061;-65
2023/06/22 01:55:49;;;;;;;15.23;13.23;;;;;;;-146.58;100.00;69501.63;5013317;28;20076;-65
2023/06/22 01:58:14;;;;;;;15.82;14.15;;;;;;;-146.58;100.00;69501.63;5011757;28;20103;-64
2023/06/22 02:00:48;;;;;;;16.60;14.88;;;;;;;-146.58;100.00;69501.63;5013643;28;20535;-65
2023/06/22 02:03:19;;;;;;;17.65;15.60;;;;;;;-146.58;100.00;69501.63;5010865;28;20412;-65
2023/06/22 02:05:52;;;;;;;18.00;15.93;;;;;;;-146.58;100.00;69501.63;5012916;28;20515;-65
2023/06/22 02:08:23;;;;;;;22.35;17.15;;;;;;;-146.58;100.00;69501.63;5011906;28;20038;-65
2023/06/22 02:10:51;;;;;;;18.73;16.77;;;;;;;-146.58;100.00;69501.63;5012845;28;20018;-66
2023/06/22 02:13:17;;;;;;;19.85;17.83;;;;;;;-146.58;100.00;69501.63;5011482;28;20037;-65
2023/06/22 02:15:43;;;;;;;21.85;19.55;;;;;;;-146.58;100.00;69501.63;5013300;28;20113;-66
2023/06/22 02:18:09;;;;;;;21.80;19.42;;;;;;;-146.58;100.00;69501.63;5011303;28;20033;-66
2023/06/22 02:20:37;;;;;;;20.13;17.50;;;;;;;-146.58;100.00;69501.63;5012848;28;20022;-66
2023/06/22 02:23:02;;;;;;;20.90;18.25;;;;;;;-146.58;100.00;69501.63;5011466;28;20056;-65
2023/06/22 02:25:27;;;;;;;23.67;18.80;;;;;;;-146.58;100.00;69501.63;5012918;28;20472;-64
2023/06/22 02:27:53;;;;;;;23.92;18.17;;;;;;;-146.58;100.00;69501.63;5011964;28;20034;-65
2023/06/22 02:30:18;;;;;;;22.13;19.85;;;;;;;-146.58;100.00;69501.63;5012968;28;20720;-67
2023/06/22 02:32:43;;;;;;;24.83;22.45;;;;;;;-146.58;100.00;69501.63;5012669;28;20060;-67
2023/06/22 02:35:09;;;;;;;27.73;24.92;;;;;;;-146.58;100.00;69501.63;5011145;28;20108;-67
2023/06/22 02:37:41;;;;;;;24.23;21.65;;;;;;;-146.58;100.00;69501.63;5012511;28;20535;-68
2023/06/22 02:40:10;;;;;;;26.75;24.13;;;;;;;-146.58;100.00;69501.63;5011121;28;20050;-68
2023/06/22 02:42:36;;;;;;;26.00;23.48;;;;;;;-146.58;100.00;69501.63;5012408;28;20021;-68
2023/06/22 02:45:02;;;;;;;22.95;20.60;;;;;;;-146.58;100.00;69501.63;5010893;28;20066;-67
2023/06/22 02:47:27;;;;;;;23.48;20.98;;;;;;;-146.58;100.00;69501.63;5012229;28;20026;-67
2023/06/22 02:49:52;;;;;;;23.38;20.98;;;;;;;-146.58;100.00;69501.63;5010519;28;20041;-67
2023/06/22 02:52:18;;;;;;;23.63;19.55;;;;;;;-146.58;100.00;69501.63;5011262;28;20088;-68
2023/06/22 02:54:45;;;;;;;22.08;17.95;;;;;;;-146.58;100.00;69501.63;5010970;28;20041;-67
2023/06/22 02:57:13;;;;;;;19.48;17.58;;;;;;;-146.58;100.00;69501.63;5012094;28;20586;-67
2023/06/22 02:59:40;;;;;;;25.93;22.07;;;;;;;-146.58;100.00;69501.63;5011053;28;20061;-67
2023/06/22 03:02:06;;;;;;;21.55;19.40;;;;;;;-146.58;100.00;69501.63;5012052;28;20036;-67
2023/06/22 03:04:31;;;;;;;26.45;23.88;;;;;;;-146.58;100.00;69501.63;5010340;28;20046;-68
2023/06/22 03:07:00;;;;;;;24.83;22.05;;;;;;;-146.58;100.00;69501.63;5011900;28;20021;-68
2023/06/22 03:09:27;;;;;;;31.45;26.52;;;;;;;-146.58;100.00;69501.63;5010389;28;20161;-67
2023/06/22 03:11:53;;;;;;;28.30;25.35;;;;;;;-146.58;100.00;69501.63;5011597;28;20481;-67
2023/06/22 03:14:18;;;;;;;32.08;26.05;;;;;;;-146.58;100.00;69501.63;5010460;28;20038;-67
2023/06/22 03:16:43;;;;;;;30.85;25.30;;;;;;;-146.58;100.00;69501.63;5011765;28;20033;-67
2023/06/22 03:19:09;;;;;;;29.80;26.67;;;;;;;-146.58;100.00;69501.63;5008983;28;20041;-67
2023/06/22 03:21:38;;;;;;;33.50;26.13;;;;;;;-146.58;100.00;69501.63;5011965;28;20380;-67
2023/06/22 03:24:04;;;;;;;32.90;29.38;;;;;;;-146.58;100.00;69501.63;5010102;28;20201;-68
2023/06/22 03:26:29;;;;;;;31.58;28.05;;;;;;;-146.58;100.00;69501.63;5011215;28;20113;-68
2023/06/22 03:28:55;;;;;;;33.47;29.85;;;;;;;-146.58;100.00;69501.63;5010062;28;20113;-68
2023/06/22 03:31:21;;;;;;;35.25;28.63;;;;;;;-146.58;100.00;69501.63;5011641;28;20056;-67
2023/06/22 03:33:50;;;;;;;32.03;28.70;;;;;;;-146.58;100.00;69501.63;5009708;28;20121;-67
2023/06/22 03:36:18;;;;;;;31.73;27.95;;;;;;;-146.58;100.00;69501.63;5011578;28;20021;-67
2023/06/22 03:38:46;;;;;;;31.17;27.90;;;;;;;-146.58;100.00;69501.63;5009781;28;20100;-67
2023/06/22 03:41:11;;;;;;;30.05;27.17;;;;;;;-146.58;100.00;69501.63;5011496;28;20032;-68
2023/06/22 03:43:36;;;;;;;34.60;28.60;;;;;;;-146.58;100.00;69501.63;5010225;28;20489;-67
2023/06/22 03:46:02;;;;;;;30.63;27.40;;;;;;;-146.58;100.00;69501.63;5011313;28;20032;-67
2023/06/22 03:48:27;;;;;;;29.77;26.80;;;;;;;-146.58;100.00;69501.63;5009642;28;20574;-67
2023/06/22 03:50:53;;;;;;;30.92;27.60;;;;;;;-146.58;100.00;69501.63;5011193;28;20029;-68
2023/06/22 03:53:18;;;;;;;32.33;28.90;;;;;;;-146.58;100.00;69501.63;5009811;28;20050;-67
2023/06/22 03:55:51;;;;;;;32.88;29.08;;;;;;;-146.58;100.00;69501.63;5010373;28;20029;-68
2023/06/22 03:58:18;;;;;;;33.85;30.15;;;;;;;-146.58;100.00;69501.63;5009203;28;20030;-67
2023/06/22 04:00:47;;;;;;;33.97;30.38;;;;;;;-146.58;100.00;69501.63;5011189;28;20132;-67
2023/06/22 04:03:14;;;;;;;34.58;30.83;;;;;;;-146.58;100.00;69501.63;5008871;28;20053;-67
2023/06/22 04:05:39;;;;;;;33.10;29.58;;;;;;;-146.58;100.00;69501.63;5010406;28;20032;-66
2023/06/22 04:08:05;;;;;;;36.38;32.50;;;;;;;-146.58;100.00;69501.63;5009346;28;20029;-66
2023/06/22 04:10:31;;;;;;;34.90;31.23;;;;;;;-146.58;100.00;69501.63;5010493;28;20021;-66
2023/06/22 04:12:56;;;;;;;29.02;25.92;;;;;;;-146.58;100.00;69501.63;5010347;28;20040;-66
2023/06/22 04:15:21;;;;;;;33.13;27.75;;;;;;;-146.58;100.00;69501.63;5028502;28;20033;-68
2023/06/22 04:17:47;;;;;;;33.35;29.35;;;;;;;-146.58;100.00;69501.63;5030192;28;20457;-68
2023/06/22 04:20:12;;;;;;;32.58;27.67;;;;;;;-146.58;100.00;69501.63;5029220;28;20080;-63
2023/06/22 04:22:37;;;;;;;36.35;28.20;;;;;;;-146.58;100.00;69501.63;5030705;28;20380;-67
2023/06/22 04:25:03;;;;;;;33.50;28.38;;;;;;;-146.58;100.00;69501.63;5027154;28;20052;-67
2023/06/22 04:27:28;;;;;;;28.08;24.65;;;;;;;-146.58;100.00;69501.63;5036802;28;20055;-67
2023/06/22 04:29:54;;;;;;;27.60;24.25;;;;;;;-146.58;100.00;69501.63;5035592;28;20115;-67
2023/06/22 04:32:19;;;;;;;33.35;27.63;;;;;;;-146.58;100.00;69501.63;5037027;28;20393;-67
2023/06/22 04:34:44;;;;;;;39.10;25.83;;;;;;;-146.58;100.00;69501.63;5035554;28;20034;-67
2023/06/22 04:37:15;;;;;;;28.58;25.45;;;;;;;-146.58;100.00;69501.63;5037371;28;20024;-67
2023/06/22 04:39:41;;;;;;;28.23;25.15;;;;;;;-146.58;100.00;69501.63;5035554;28;20562;-67
2023/06/22 04:42:06;;;;;;;26.75;23.98;;;;;;;-146.58;100.00;69501.63;5037040;28;20025;-67
2023/06/22 04:44:31;;;;;;;31.00;24.77;;;;;;;-146.58;100.00;69501.63;5035774;28;20038;-67
2023/06/22 04:47:02;;;;;;;27.80;24.77;;;;;;;-146.58;100.00;69501.63;5035213;28;20021;-67
2023/06/22 04:49:32;;;;;;;30.88;27.55;;;;;;;-146.58;100.00;69501.63;5035708;28;20042;-67
2023/06/22 04:51:59;;;;;;;29.63;23.27;;;;;;;-146.58;100.00;69501.63;5036733;28;20074;-67
2023/06/22 04:54:24;;;;;;;27.55;24.67;;;;;;;-146.58;100.00;69501.63;5035509;28;20064;-67
2023/06/22 04:56:56;;;;;;;28.05;24.80;;;;;;;-146.58;100.00;69501.63;5036755;28;20468;-67
2023/06/22 04:59:28;;;;;;;25.75;23.02;;;;;;;-146.58;100.00;69501.63;5035873;28;20124;-67
2023/06/22 05:01:57;;;;;;;29.60;22.10;;;;;;;-146.58;100.00;69501.63;5035208;28;20460;-67
2023/06/22 05:04:25;;;;;;;27.60;24.77;;;;;;;-146.58;100.00;69501.63;5035566;28;20046;-67
2023/06/22 05:06:52;;;;;;;24.67;21.50;;;;;;;-146.58;100.00;69501.63;5036759;28;20431;-67
2023/06/22 05:09:17;;;;;;;24.52;21.92;;;;;;;-146.58;100.00;69501.63;5035079;28;20041;-67
2023/06/22 05:11:44;;;;;;;23.60;21.13;;;;;;;-146.58;100.00;69501.63;5036852;28;20120;-67
2023/06/22 05:14:10;;;;;;;22.00;19.45;;;;;;;-146.58;100.00;69501.63;5035774;28;20501;-67
2023/06/22 05:16:36;;;;;;;24.20;21.80;;;;;;;-146.58;100.00;69501.63;5036563;28;20116;-67
2023/06/22 05:19:03;;;;;;;24.88;21.05;;;;;;;-146.58;100.00;69501.63;5035287;28;20052;-67
2023/06/22 05:21:30;;;;;;;22.95;20.35;;;;;;;-146.58;100.00;69501.63;5036725;28;20100;-67
2023/06/22 05:23:59;;;;;;;23.73;19.15;;;;;;;-146.58;100.00;69501.63;5034767;28;20576;-67
2023/06/22 05:26:25;;;;;;;23.52;21.10;;;;;;;-146.58;100.00;69501.63;5036844;28;20025;-67
2023/06/22 05:28:50;;;;;;;19.80;17.95;;;;;;;-146.58;100.00;69501.63;5035060;28;20041;-67
2023/06/22 05:31:16;;;;;;;20.83;18.60;;;;;;;-146.58;100.00;69501.63;5036277;28;20392;-64
2023/06/22 05:33:43;;;;;;;21.48;17.85;;;;;;;-146.58;100.00;69501.63;5035264;28;20124;-65
2023/06/22 05:36:10;;;;;;;22.58;20.05;;;;;;;-146.58;100.00;69501.63;5034713;28;20635;-64
2023/06/22 05:38:36;;;;;;;23.02;18.17;;;;;;;-146.58;100.00;69501.63;5029348;28;20033;-65
2023/06/22 05:41:01;;;;;;;21.75;16.00;;;;;;;-146.58;100.00;69501.63;5032395;28;20025;-65
2023/06/22 05:43:27;;;;;;;17.73;15.98;;;;;;;-146.58;100.00;69501.63;5031439;28;20029;-64
2023/06/22 05:45:52;;;;;;;20.25;16.15;;;;;;;-146.58;100.00;69501.63;5018865;28;20590;-65
2023/06/22 05:48:17;;;;;;;17.92;16.13;;;;;;;-146.58;100.00;69501.63;5011558;28;20037;-65
2023/06/22 05:50:43;;;;;;;17.40;14.40;;;;;;;-146.58;100.00;69501.63;5012650;28;20403;-65
2023/06/22 05:53:08;;;;;;;18.25;15.55;;;;;;;-146.58;100.00;69501.63;5011723;28;20028;-65
2023/06/22 05:55:34;;;;;;;17.27;14.07;;;;;;;-146.58;100.00;69501.63;5010199;28;20088;-65
2023/06/22 05:57:59;;;;;;;17.48;14.27;;;;;;;-146.58;100.00;69501.63;5010351;28;20022;-65
2023/06/22 06:00:24;;;;;;;19.00;13.80;;;;;;;-146.58;100.00;69501.63;5013146;28;20033;-65
2023/06/22 06:02:50;;;;;;;14.15;11.65;;;;;;;-146.58;100.00;69501.63;5011344;28;20058;-65
2023/06/22 06:05:16;;;;;;;15.43;13.75;;;;;;;-146.58;100.00;69501.63;5031032;28;20136;-65
2023/06/22 06:07:42;;;;;;;12.90;10.90;;;;;;;-146.58;100.00;69501.63;5032874;28;20045;-65
2023/06/22 06:10:08;;;;;;;15.73;13.38;;;;;;;-146.58;100.00;69501.63;5012848;28;20067;-65
2023/06/22 06:12:34;;;;;;;16.65;12.02;;;;;;;-146.58;100.00;69501.63;5013205;28;20482;-67
2023/06/22 06:14:59;;;;;;;16.75;11.80;;;;;;;-146.58;100.00;69501.63;5011254;28;20030;-64
2023/06/22 06:17:24;;;;;;;11.30;10.00;;;;;;;-146.58;100.00;69501.63;5012719;28;20365;-64
2023/06/22 06:19:50;;;;;;;13.60;11.60;;;;;;;-146.58;100.00;69501.63;5027107;28;20037;-64
2023/06/22 06:22:15;;;;;;;13.15;9.77;;;;;;;-146.58;100.00;69501.63;5032731;28;20030;-65
2023/06/22 06:24:40;;;;;;;14.30;11.73;;;;;;;-146.58;100.00;69501.63;5030923;28;20033;-65
2023/06/22 06:27:06;;;;;;;11.05;9.48;;;;;;;-146.58;100.00;69501.63;5032520;28;20067;-65
2023/06/22 06:29:32;;;;;;;12.18;10.57;;;;;;;-146.58;100.00;69501.63;5031125;28;20103;-65
2023/06/22 06:31:57;;;;;;;14.85;11.07;;;;;;;-146.58;100.00;69501.63;5031868;28;20068;-65
2023/06/22 06:34:22;;;;;;;13.48;10.02;;;;;;;-146.58;100.00;69501.63;5029886;28;20037;-65
2023/06/22 06:36:48;;;;;;;12.95;11.60;;;;;;;-146.58;100.00;69501.63;5032430;28;20017;-65
2023/06/22 06:39:13;;;;;;;14.35;11.55;;;;;;;-146.58;100.00;69501.63;5030914;28;20420;-65
2023/06/22 06:41:38;;;;;;;15.50;10.38;;;;;;;-146.58;100.00;69501.63;5032510;28;20021;-65
2023/06/22 06:44:04;;;;;;;13.27;10.77;;;;;;;-146.58;100.00;69501.63;5030654;28;20041;-65
2023/06/22 06:46:29;;;;;;;11.43;10.23;;;;;;;-146.58;100.00;69501.63;5031947;28;20412;-63
2023/06/22 06:48:54;;;;;;;16.05;12.32;;;;;;;-146.58;100.00;69501.63;5030383;28;20064;-66
2023/06/22 06:51:20;;;;;;;12.65;10.48;;;;;;;-146.58;100.00;69501.63;5032160;28;20384;-65
2023/06/22 06:53:45;;;;;;;13.82;11.07;;;;;;;-146.58;100.00;69501.63;5030257;28;20037;-64
2023/06/22 06:56:11;;;;;;;18.25;12.30;;;;;;;-146.58;100.00;69501.63;5032104;28;20495;-65
2023/06/22 06:58:36;;;;;;;13.20;11.45;;;;;;;-146.58;100.00;69501.63;5030884;28;20072;-65
2023/06/22 07:01:03;;;;;;;16.40;11.95;;;;;;;-146.58;100.00;69501.63;5031522;28;20025;-65
2023/06/22 07:03:28;;;;;;;14.40;10.52;;;;;;;-146.58;100.00;69501.63;5030469;28;20565;-64
2023/06/22 07:05:53;;;;;;;13.20;11.80;;;;;;;-146.58;100.00;69501.63;5031720;28;20021;-64
2023/06/22 07:08:19;;;;;;;14.85;12.02;;;;;;;-146.58;100.00;69501.63;5030138;28;20037;-65
2023/06/22 07:10:44;;;;;;;12.52;11.32;;;;;;;-146.58;100.00;69501.63;5031501;28;20032;-65
2023/06/22 07:13:09;;;;;;;11.07;9.90;;;;;;;-146.58;100.00;69501.63;5027043;28;20025;-65
2023/06/22 07:15:35;;;;;;;13.38;10.93;;;;;;;-146.58;100.00;69501.63;5031379;28;20396;-65
2023/06/22 07:18:00;;;;;;;13.68;11.75;;;;;;;-146.58;100.00;69501.63;5029940;28;20021;-65
2023/06/22 07:20:25;;;;;;;12.48;11.25;;;;;;;-146.58;100.00;69501.63;5031511;28;20037;-65
2023/06/22 07:22:51;;;;;;;16.88;12.82;;;;;;;-146.58;100.00;69501.63;5030982;28;20021;-64
2023/06/22 07:25:17;;;;;;;14.75;12.00;;;;;;;-146.58;100.00;69501.63;5030283;28;20451;-64
2023/06/22 07:27:56;;;;;;;14.40;12.85;;;;;;;-146.58;100.00;69501.63;5031578;28;20440;-64
2023/06/22 07:30:21;;;;;;;12.38;11.07;;;;;;;-146.58;100.00;69501.63;5029779;28;20037;-64
2023/06/22 07:32:47;;;;;;;15.82;13.23;;;;;;;-146.58;100.00;69501.63;5031335;28;20052;-64
2023/06/22 07:35:12;;;;;;;13.32;10.02;;;;;;;-146.58;100.00;69501.63;5030135;28;20041;-64
2023/06/22 07:37:38;;;;;;;13.98;11.85;;;;;;;-146.58;100.00;69501.63;5031089;28;20018;-63
2023/06/22 07:40:06;;;;;;;16.20;10.95;;;;;;;-146.58;100.00;69501.63;5029853;28;20045;-64
2023/06/22 07:42:32;;;;;;;14.38;11.50;;;;;;;-146.58;100.00;69501.63;5031351;28;20048;-64
2023/06/22 07:44:58;;;;;;;15.30;12.10;;;;;;;-146.58;100.00;69501.63;5028835;28;20121;-64
2023/06/22 07:47:25;;;;;;;20.67;12.60;;;;;;;-146.58;100.00;69501.63;5031226;28;20063;-64
2023/06/22 07:49:51;;;;;;;15.32;11.90;;;;;;;-146.58;100.00;69501.63;5029542;28;20037;-64
2023/06/22 07:52:17;;;;;;;19.38;12.40;;;;;;;-146.58;100.00;69501.63;5030795;28;20057;-63
2023/06/22 07:54:42;;;;;;;17.80;14.30;;;;;;;-146.58;100.00;69501.63;5029685;28;20208;-63
2023/06/22 07:57:07;;;;;;;14.23;12.75;;;;;;;-146.58;100.00;69501.63;5030933;28;20030;-63
2023/06/22 07:59:33;;;;;;;12.88;11.55;;;;;;;-146.58;100.00;69501.63;5029256;28;20512;-63
2023/06/22 08:01:58;;;;;;;18.65;12.25;;;;;;;-146.58;100.00;69501.63;5030104;28;20021;-63
2023/06/22 08:04:23;;;;;;;13.90;12.48;;;;;;;-146.58;100.00;69501.63;5029413;28;20041;-62
2023/06/22 08:06:49;;;;;;;14.18;11.43;;;;;;;-146.58;100.00;69501.63;5030435;28;20029;-62
2023/06/22 08:09:14;;;;;;;20.63;13.60;;;;;;;-146.58;100.00;69501.63;5029344;28;20046;-62
2023/06/22 08:11:40;;;;;;;13.40;12.10;;;;;;;-146.58;100.00;69501.63;5030783;28;20074;-62
2023/06/22 08:14:05;;;;;;;20.45;14.75;;;;;;;-146.58;100.00;69501.63;5027652;28;20040;-62
2023/06/22 08:16:30;;;;;;;18.58;13.13;;;;;;;-146.58;100.00;69501.63;5030809;28;20469;-62
2023/06/22 08:18:56;;;;;;;14.65;11.82;;;;;;;-146.58;100.00;69501.63;5029379;28;20439;-63
2023/06/22 08:21:22;;;;;;;14.18;12.57;;;;;;;-146.58;100.00;69501.63;5030485;28;20075;-62
2023/06/22 08:23:48;;;;;;;13.80;12.32;;;;;;;-146.58;100.00;69501.63;5029122;28;20041;-62
2023/06/22 08:26:14;;;;;;;17.42;12.43;;;;;;;-146.58;100.00;69501.63;5030637;28;20021;-63
2023/06/22 08:28:39;;;;;;;14.60;12.30;;;;;;;-146.58;100.00;69501.63;5028910;28;20049;-63
2023/06/22 08:31:05;;;;;;;15.45;12.85;;;;;;;-146.58;100.00;69501.63;5029092;28;20025;-63
2023/06/22 08:33:30;;;;;;;15.43;11.32;;;;;;;-146.58;100.00;69501.63;5029062;28;20038;-62
2023/06/22 08:35:56;;;;;;;13.88;12.00;;;;;;;-146.58;100.00;69501.63;5030128;28;20022;-63
2023/06/22 08:38:22;;;;;;;16.00;11.32;;;;;;;-146.58;100.00;69501.63;5029370;28;20037;-62
2023/06/22 08:40:47;;;;;;;14.60;11.27;;;;;;;-146.58;100.00;69501.63;5030461;28;20040;-64
2023/06/22 08:43:13;;;;;;;13.73;12.18;;;;;;;-146.58;100.00;69501.63;5028687;28;20029;-64
2023/06/22 08:45:38;;;;;;;14.60;12.68;;;;;;;-146.58;100.00;69501.63;5030481;28;20029;-64
2023/06/22 08:48:04;;;;;;;13.65;12.25;;;;;;;-146.58;100.00;69501.63;5028883;28;20056;-64
2023/06/22 08:50:29;;;;;;;11.48;10.27;;;;;;;-146.58;100.00;69501.63;5030501;28;20013;-64
2023/06/22 08:52:55;;;;;;;13.35;11.65;;;;;;;-146.58;100.00;69501.63;5029994;28;20076;-64
2023/06/22 08:55:20;;;;;;;15.95;12.63;;;;;;;-146.58;100.00;69501.63;5029263;28;20668;-63
2023/06/22 08:57:45;;;;;;;16.73;13.43;;;;;;;-146.58;100.00;69501.63;5030015;28;20029;-63
2023/06/22 09:00:16;;;;;;;13.52;12.02;;;;;;;-146.58;100.00;69501.63;5028790;28;20091;-64
2023/06/22 09:02:42;;;;;;;15.45;10.57;;;;;;;-146.58;100.00;69501.63;5030313;28;20033;-64
2023/06/22 09:05:07;;;;;;;16.55;12.75;;;;;;;-146.58;100.00;69501.63;5028735;28;20041;-64
2023/06/22 09:07:34;;;;;;;11.77;10.65;;;;;;;-146.58;100.00;69501.63;5030188;28;20031;-64
2023/06/22 09:09:59;;;;;;;13.30;11.13;;;;;;;-146.58;100.00;69501.63;5028774;28;20057;-64
2023/06/22 09:12:27;;;;;;;22.15;10.90;;;;;;;-146.58;100.00;69501.63;5031712;28;20389;-64
2023/06/22 09:14:52;;;;;;;15.17;12.20;;;;;;;-146.58;100.00;69501.63;5032121;28;20040;-64
2023/06/22 09:17:17;;;;;;;11.43;10.32;;;;;;;-146.58;100.00;69501.63;5034214;28;20049;-64
2023/06/22 09:19:43;;;;;;;12.88;11.07;;;;;;;-146.58;100.00;69501.63;5032134;28;20049;-64
2023/06/22 09:22:08;;;;;;;11.55;10.23;;;;;;;-146.58;100.00;69501.63;5017791;28;20022;-64
2023/06/22 09:24:33;;;;;;;11.73;10.60;;;;;;;-146.58;100.00;69501.63;5011632;28;20551;-64
2023/06/22 09:26:59;;;;;;;18.52;12.43;;;;;;;-146.58;100.00;69501.63;5013327;28;20034;-65
2023/06/22 09:29:25;;;;;;;16.33;10.50;;;;;;;-146.58;100.00;69501.63;5011758;28;20045;-65
2023/06/22 09:31:50;;;;;;;12.20;9.48;;;;;;;-146.58;100.00;69501.63;5013682;28;20032;-65
2023/06/22 09:34:19;;;;;;;11.30;10.13;;;;;;;-146.58;100.00;69501.63;5012570;28;20575;-65
2023/06/22 09:36:45;;;;;;;13.27;11.95;;;;;;;-146.58;100.00;69501.63;5012364;28;20036;-64
2023/06/22 09:39:10;;;;;;;12.43;9.98;;;;;;;-146.58;100.00;69501.63;5012590;28;20041;-64
2023/06/22 09:41:35;;;;;;;14.55;10.38;;;;;;;-146.58;100.00;69501.63;5013650;28;20021;-64
2023/06/22 09:44:01;;;;;;;11.25;10.02;;;;;;;-146.58;100.00;69501.63;5011984;28;20501;-64
2023/06/22 09:46:26;;;;;;;11.95;10.70;;;;;;;-146.58;100.00;69501.63;5031282;28;20056;-65
2023/06/22 09:48:52;;;;;;;11.50;9.52;;;;;;;-146.58;100.00;69501.63;5031794;28;20087;-65
2023/06/22 09:51:19;;;;;;;12.60;9.85;;;;;;;-146.58;100.00;69501.63;5033006;28;20036;-64
2023/06/22 09:53:45;;;;;;;16.70;10.15;;;;;;;-146.58;100.00;69501.63;5030463;28;20038;-65
2023/06/22 09:56:14;;;;;;;11.18;9.20;;;;;;;-146.58;100.00;69501.63;5030753;28;20354;-63
2023/06/22 09:58:41;;;;;;;13.05;8.20;;;;;;;-146.58;100.00;69501.63;5030344;28;20064;-64
2023/06/22 10:01:07;;;;;;;9.73;8.65;;;;;;;-146.58;100.00;69501.63;5031758;28;20541;-64
2023/06/22 10:03:32;;;;;;;14.10;11.25;;;;;;;-146.58;100.00;69501.63;5031782;28;20052;-63
2023/06/22 10:05:57;;;;;;;20.05;9.88;;;;;;;-146.58;100.00;69501.63;5032257;28;20021;-64
2023/06/22 10:08:23;;;;;;;10.90;9.65;;;;;;;-146.58;100.00;69501.63;5031629;28;20041;-63
2023/06/22 10:10:48;;;;;;;13.50;9.75;;;;;;;-146.58;100.00;69501.63;5032634;28;20025;-63
2023/06/22 10:13:14;;;;;;;12.73;8.27;;;;;;;-146.58;100.00;69501.63;5030591;28;20480;-63
2023/06/22 10:15:40;;;;;;;10.70;9.60;;;;;;;-146.58;100.00;69501.63;5032830;28;20116;-63
2023/06/22 10:18:05;;;;;;;15.48;9.80;;;;;;;-146.58;100.00;69501.63;5030906;28;20021;-64
2023/06/22 10:20:31;;;;;;;11.13;9.25;;;;;;;-146.58;100.00;69501.63;5031976;28;20100;-63
2023/06/22 10:22:56;;;;;;;10.80;9.73;;;;;;;-146.58;100.00;69501.63;5032557;28;20029;-64
2023/06/22 10:25:22;;;;;;;9.90;8.25;;;;;;;-146.58;100.00;69501.63;5010190;28;20034;-63
2023/06/22 10:27:47;;;;;;;12.18;7.32;;;;;;;-146.58;100.00;69501.63;5011970;28;20025;-63
2023/06/22 10:30:13;;;;;;;8.63;7.70;;;;;;;-146.58;100.00;69501.63;5011085;28;20513;-63
2023/06/22 10:32:39;;;;;;;16.92;8.38;;;;;;;-146.58;100.00;69501.63;5012822;28;20041;-64
2023/06/22 10:35:05;;;;;;;12.85;7.90;;;;;;;-146.58;100.00;69501.63;5008429;28;20040;-63
2023/06/22 10:37:30;;;;;;;9.23;7.72;;;;;;;-146.58;100.00;69501.63;4994182;28;20038;-63
2023/06/22 10:39:55;;;;;;;14.85;9.20;;;;;;;-146.58;100.00;69501.63;4992256;28;20034;-63
2023/06/22 10:42:21;;;;;;;11.25;8.80;;;;;;;-146.58;100.00;69501.63;5011583;28;20108;-63
2023/06/22 10:44:46;;;;;;;10.15;6.55;;;;;;;-146.58;100.00;69501.63;5010361;28;20050;-63
2023/06/22 10:47:11;;;;;;;9.30;8.38;;;;;;;-146.58;100.00;69501.63;5012494;28;20014;-63
2023/06/22 10:49:40;;;;;;;8.52;7.47;;;;;;;-146.58;100.00;69501.63;5010214;28;20452;-63
2023/06/22 10:52:07;;;;;;;11.98;7.55;;;;;;;-146.58;100.00;69501.63;5012085;28;20550;-64